TimeMST,TemperatureF,Dew PointF,Humidity,Sea Level PressureIn,VisibilityMPH,Wind Direction,Wind SpeedMPH,Gust SpeedMPH,PrecipitationIn,Events,Conditions,WindDirDegrees,DateUTC
12:53 AM,34.0,26.1,73,29.85,10.0,Calm,Calm,-,N/A,,Mostly Cloudy,0,2013-03-08 07:53:00
1:53 AM,33.1,27.0,78,29.85,10.0,Calm,Calm,-,N/A,,Scattered Clouds,0,2013-03-08 08:53:00
2:53 AM,32.0,27.0,82,29.82,10.0,Calm,Calm,-,N/A,,Overcast,0,2013-03-08 09:53:00
3:53 AM,34.0,27.0,75,29.81,10.0,Calm,Calm,-,N/A,,Clear,0,2013-03-08 10:53:00
4:53 AM,32.0,26.1,79,29.81,10.0,Calm,Calm,-,N/A,,Clear,0,2013-03-08 11:53:00
5:53 AM,32.0,26.1,79,29.85,10.0,NW,3.5,-,N/A,,Clear,320,2013-03-08 12:53:00
6:53 AM,33.1,26.1,75,29.85,10.0,West,4.6,-,N/A,,Mostly Cloudy,280,2013-03-08 13:53:00
7:53 AM,35.1,27.0,72,29.87,10.0,West,4.6,-,N/A,,Overcast,260,2013-03-08 14:53:00
8:53 AM,35.1,28.0,76,29.88,10.0,East,5.8,-,N/A,,Overcast,100,2013-03-08 15:53:00
9:53 AM,35.1,28.0,76,29.89,9.0,NNE,3.5,-,N/A,,Overcast,20,2013-03-08 16:53:00
10:53 AM,42.1,30.9,65,29.85,10.0,West,4.6,-,0.00,,Mostly Cloudy,280,2013-03-08 17:53:00
11:53 AM,46.0,30.0,54,29.80,10.0,SW,3.5,-,N/A,,Clear,230,2013-03-08 18:53:00
12:53 PM,46.0,30.9,56,29.78,10.0,East,5.8,-,N/A,,Clear,90,2013-03-08 19:53:00
1:53 PM,44.1,32.0,63,29.77,10.0,SE,9.2,-,N/A,,Scattered Clouds,140,2013-03-08 20:53:00
2:53 PM,44.1,33.1,65,29.76,10.0,Calm,Calm,-,N/A,,Overcast,0,2013-03-08 21:53:00
3:53 PM,43.0,30.9,62,29.74,10.0,ENE,5.8,-,N/A,,Overcast,70,2013-03-08 22:53:00
4:53 PM,43.0,33.1,68,29.73,10.0,East,3.5,-,N/A,,Overcast,80,2013-03-08 23:53:00
5:53 PM,41.0,32.0,70,29.72,10.0,NNE,3.5,-,N/A,,Partly Cloudy,20,2013-03-09 00:53:00
6:53 PM,37.9,32.0,79,29.71,10.0,West,4.6,-,N/A,,Clear,280,2013-03-09 01:53:00
7:53 PM,37.0,30.9,79,29.71,10.0,WNW,4.6,-,N/A,,Mostly Cloudy,290,2013-03-09 02:53:00
8:53 PM,37.9,32.0,79,29.71,10.0,Calm,Calm,-,N/A,,Mostly Cloudy,0,2013-03-09 03:53:00
9:53 PM,37.9,32.0,79,29.70,10.0,Calm,Calm,-,0.00,,Overcast,0,2013-03-09 04:53:00
10:53 PM,37.0,32.0,82,29.67,10.0,Calm,Calm,-,N/A,,Overcast,0,2013-03-09 05:53:00
11:44 PM,35.6,32.0,87,29.68,10.0,East,5.8,-,0.00,Rain,Light Rain,90,2013-03-09 06:44:00
11:53 PM,36.0,32.0,86,29.65,10.0,East,3.5,-,0.00,Rain,Light Rain,100,2013-03-09 06:53:00